sensor_id;sensor_type;location;lat;lon;timestamp;P1;durP1;ratioP1;P2;durP2;ratioP2
43986;SDS011;29650;47.378;8.300;2023-12-29T00:00:11;7.35;;;5.18;;
43986;SDS011;29650;47.378;8.300;2023-12-29T00:02:40;10.55;;;4.90;;
43986;SDS011;29650;47.378;8.300;2023-12-29T00:05:07;11.20;;;6.00;;
43986;SDS011;29650;47.378;8.300;2023-12-29T00:07:34;7.13;;;4.25;;
43986;SDS011;29650;47.378;8.300;2023-12-29T00:10:01;6.68;;;5.35;;
43986;SDS011;29650;47.378;8.300;2023-12-29T00:12:28;6.78;;;5.00;;
43986;SDS011;29650;47.378;8.300;2023-12-29T00:14:55;8.75;;;4.53;;
43986;SDS011;29650;47.378;8.300;2023-12-29T00:17:22;6.00;;;4.57;;
43986;SDS011;29650;47.378;8.300;2023-12-29T00:19:50;8.60;;;5.28;;
43986;SDS011;29650;47.378;8.300;2023-12-29T00:22:18;9.63;;;5.13;;
43986;SDS011;29650;47.378;8.300;2023-12-29T00:24:46;8.40;;;5.13;;
43986;SDS011;29650;47.378;8.300;2023-12-29T00:27:13;9.38;;;5.05;;
43986;SDS011;29650;47.378;8.300;2023-12-29T00:29:40;11.02;;;5.43;;
43986;SDS011;29650;47.378;8.300;2023-12-29T00:32:07;7.70;;;5.10;;
43986;SDS011;29650;47.378;8.300;2023-12-29T00:34:34;6.85;;;4.75;;
43986;SDS011;29650;47.378;8.300;2023-12-29T00:37:04;7.70;;;4.57;;
43986;SDS011;29650;47.378;8.300;2023-12-29T00:39:31;7.35;;;5.00;;
43986;SDS011;29650;47.378;8.300;2023-12-29T00:42:03;7.35;;;4.75;;
43986;SDS011;29650;47.378;8.300;2023-12-29T00:44:31;6.50;;;4.70;;
43986;SDS011;29650;47.378;8.300;2023-12-29T00:46:58;7.03;;;5.03;;
43986;SDS011;29650;47.378;8.300;2023-12-29T00:49:26;12.00;;;5.47;;
43986;SDS011;29650;47.378;8.300;2023-12-29T00:51:53;10.32;;;5.90;;
43986;SDS011;29650;47.378;8.300;2023-12-29T00:54:21;9.93;;;5.57;;
43986;SDS011;29650;47.378;8.300;2023-12-29T00:56:48;9.05;;;5.97;;
43986;SDS011;29650;47.378;8.300;2023-12-29T00:59:15;9.10;;;5.63;;
43986;SDS011;29650;47.378;8.300;2023-12-29T01:01:44;10.73;;;5.80;;
43986;SDS011;29650;47.378;8.300;2023-12-29T01:04:11;9.88;;;5.30;;
43986;SDS011;29650;47.378;8.300;2023-12-29T01:06:38;10.52;;;5.95;;
43986;SDS011;29650;47.378;8.300;2023-12-29T01:09:06;8.93;;;6.35;;
43986;SDS011;29650;47.378;8.300;2023-12-29T01:11:35;10.55;;;5.90;;
43986;SDS011;29650;47.378;8.300;2023-12-29T01:14:02;9.53;;;5.77;;
43986;SDS011;29650;47.378;8.300;2023-12-29T01:16:29;9.35;;;6.15;;
43986;SDS011;29650;47.378;8.300;2023-12-29T01:18:56;9.32;;;5.55;;
43986;SDS011;29650;47.378;8.300;2023-12-29T01:21:23;10.23;;;5.80;;
43986;SDS011;29650;47.378;8.300;2023-12-29T01:23:50;8.52;;;5.82;;
43986;SDS011;29650;47.378;8.300;2023-12-29T01:26:17;8.13;;;5.38;;
43986;SDS011;29650;47.378;8.300;2023-12-29T01:28:45;8.30;;;5.68;;
43986;SDS011;29650;47.378;8.300;2023-12-29T01:31:12;8.40;;;5.45;;
43986;SDS011;29650;47.378;8.300;2023-12-29T01:33:39;9.07;;;5.85;;
43986;SDS011;29650;47.378;8.300;2023-12-29T01:36:06;9.73;;;6.55;;
43986;SDS011;29650;47.378;8.300;2023-12-29T01:38:33;10.30;;;6.00;;
43986;SDS011;29650;47.378;8.300;2023-12-29T01:41:00;9.70;;;5.35;;
43986;SDS011;29650;47.378;8.300;2023-12-29T01:43:28;9.15;;;5.75;;
43986;SDS011;29650;47.378;8.300;2023-12-29T01:45:56;8.77;;;5.40;;
43986;SDS011;29650;47.378;8.300;2023-12-29T01:48:23;9.23;;;5.70;;
43986;SDS011;29650;47.378;8.300;2023-12-29T01:50:51;11.63;;;6.38;;
43986;SDS011;29650;47.378;8.300;2023-12-29T01:53:19;9.35;;;5.63;;
43986;SDS011;29650;47.378;8.300;2023-12-29T01:55:47;12.40;;;5.63;;
43986;SDS011;29650;47.378;8.300;2023-12-29T01:58:15;10.13;;;6.18;;
43986;SDS011;29650;47.378;8.300;2023-12-29T02:00:42;9.27;;;5.45;;
43986;SDS011;29650;47.378;8.300;2023-12-29T02:03:11;8.32;;;5.15;;
43986;SDS011;29650;47.378;8.300;2023-12-29T02:05:38;8.57;;;5.53;;
43986;SDS011;29650;47.378;8.300;2023-12-29T02:08:06;8.07;;;5.03;;
43986;SDS011;29650;47.378;8.300;2023-12-29T02:10:35;10.52;;;6.15;;
43986;SDS011;29650;47.378;8.300;2023-12-29T02:13:02;8.15;;;5.40;;
43986;SDS011;29650;47.378;8.300;2023-12-29T02:15:29;9.52;;;5.43;;
43986;SDS011;29650;47.378;8.300;2023-12-29T02:17:57;9.70;;;6.32;;
43986;SDS011;29650;47.378;8.300;2023-12-29T02:20:29;10.75;;;6.55;;
43986;SDS011;29650;47.378;8.300;2023-12-29T02:22:56;7.97;;;6.00;;
43986;SDS011;29650;47.378;8.300;2023-12-29T02:25:24;9.18;;;5.00;;
43986;SDS011;29650;47.378;8.300;2023-12-29T02:27:52;8.45;;;5.68;;
43986;SDS011;29650;47.378;8.300;2023-12-29T02:30:25;8.75;;;5.57;;
43986;SDS011;29650;47.378;8.300;2023-12-29T02:32:58;8.13;;;5.18;;
43986;SDS011;29650;47.378;8.300;2023-12-29T02:35:28;8.32;;;5.47;;
43986;SDS011;29650;47.378;8.300;2023-12-29T02:37:58;9.15;;;6.00;;
43986;SDS011;29650;47.378;8.300;2023-12-29T02:40:26;12.63;;;6.00;;
43986;SDS011;29650;47.378;8.300;2023-12-29T02:42:54;10.65;;;6.90;;
43986;SDS011;29650;47.378;8.300;2023-12-29T02:45:21;8.32;;;5.63;;
43986;SDS011;29650;47.378;8.300;2023-12-29T02:47:48;10.48;;;6.20;;
43986;SDS011;29650;47.378;8.300;2023-12-29T02:50:15;9.90;;;6.13;;
43986;SDS011;29650;47.378;8.300;2023-12-29T02:52:42;9.75;;;5.85;;
43986;SDS011;29650;47.378;8.300;2023-12-29T02:55:09;9.38;;;6.22;;
43986;SDS011;29650;47.378;8.300;2023-12-29T02:57:37;8.70;;;5.93;;
43986;SDS011;29650;47.378;8.300;2023-12-29T03:00:05;10.17;;;6.10;;
43986;SDS011;29650;47.378;8.300;2023-12-29T03:02:32;9.57;;;6.20;;
43986;SDS011;29650;47.378;8.300;2023-12-29T03:04:59;9.80;;;6.05;;
43986;SDS011;29650;47.378;8.300;2023-12-29T03:07:27;11.77;;;6.50;;
43986;SDS011;29650;47.378;8.300;2023-12-29T03:09:54;10.02;;;6.45;;
43986;SDS011;29650;47.378;8.300;2023-12-29T03:12:21;12.18;;;6.82;;
43986;SDS011;29650;47.378;8.300;2023-12-29T03:14:49;9.35;;;6.07;;
43986;SDS011;29650;47.378;8.300;2023-12-29T03:17:16;11.23;;;6.03;;
43986;SDS011;29650;47.378;8.300;2023-12-29T03:19:43;9.20;;;5.95;;
43986;SDS011;29650;47.378;8.300;2023-12-29T03:22:10;9.43;;;6.50;;
43986;SDS011;29650;47.378;8.300;2023-12-29T03:24:39;9.55;;;6.32;;
43986;SDS011;29650;47.378;8.300;2023-12-29T03:27:07;10.15;;;6.35;;
43986;SDS011;29650;47.378;8.300;2023-12-29T03:29:34;11.30;;;7.25;;
43986;SDS011;29650;47.378;8.300;2023-12-29T03:32:03;10.38;;;6.70;;
43986;SDS011;29650;47.378;8.300;2023-12-29T03:34:32;10.80;;;6.10;;
43986;SDS011;29650;47.378;8.300;2023-12-29T03:36:59;8.98;;;5.38;;
43986;SDS011;29650;47.378;8.300;2023-12-29T03:39:26;9.85;;;6.45;;
43986;SDS011;29650;47.378;8.300;2023-12-29T03:41:52;9.35;;;5.47;;
43986;SDS011;29650;47.378;8.300;2023-12-29T03:44:19;7.38;;;5.32;;
43986;SDS011;29650;47.378;8.300;2023-12-29T03:46:46;8.88;;;4.95;;
43986;SDS011;29650;47.378;8.300;2023-12-29T03:49:16;9.20;;;5.72;;
43986;SDS011;29650;47.378;8.300;2023-12-29T03:51:43;6.60;;;4.90;;
43986;SDS011;29650;47.378;8.300;2023-12-29T03:54:09;8.45;;;4.95;;
43986;SDS011;29650;47.378;8.300;2023-12-29T03:56:36;9.15;;;5.78;;
43986;SDS011;29650;47.378;8.300;2023-12-29T03:59:03;8.38;;;5.32;;
43986;SDS011;29650;47.378;8.300;2023-12-29T04:01:32;9.38;;;5.47;;
43986;SDS011;29650;47.378;8.300;2023-12-29T04:04:00;7.88;;;5.63;;
43986;SDS011;29650;47.378;8.300;2023-12-29T04:06:28;10.23;;;5.40;;
43986;SDS011;29650;47.378;8.300;2023-12-29T04:08:55;9.45;;;5.05;;
43986;SDS011;29650;47.378;8.300;2023-12-29T04:11:22;9.98;;;5.20;;
43986;SDS011;29650;47.378;8.300;2023-12-29T04:13:49;7.80;;;4.78;;
43986;SDS011;29650;47.378;8.300;2023-12-29T04:16:16;7.53;;;5.15;;
43986;SDS011;29650;47.378;8.300;2023-12-29T04:18:43;7.97;;;5.50;;
43986;SDS011;29650;47.378;8.300;2023-12-29T04:21:13;7.35;;;5.22;;
43986;SDS011;29650;47.378;8.300;2023-12-29T04:23:41;8.60;;;5.35;;
43986;SDS011;29650;47.378;8.300;2023-12-29T04:26:08;10.80;;;6.20;;
43986;SDS011;29650;47.378;8.300;2023-12-29T04:28:35;6.88;;;5.25;;
43986;SDS011;29650;47.378;8.300;2023-12-29T04:31:02;10.35;;;5.72;;
43986;SDS011;29650;47.378;8.300;2023-12-29T04:33:29;8.75;;;5.47;;
43986;SDS011;29650;47.378;8.300;2023-12-29T04:35:56;9.43;;;6.00;;
43986;SDS011;29650;47.378;8.300;2023-12-29T04:38:23;8.73;;;5.47;;
43986;SDS011;29650;47.378;8.300;2023-12-29T04:40:52;8.15;;;5.82;;
43986;SDS011;29650;47.378;8.300;2023-12-29T04:43:18;8.23;;;5.85;;
43986;SDS011;29650;47.378;8.300;2023-12-29T04:45:45;10.85;;;6.72;;
43986;SDS011;29650;47.378;8.300;2023-12-29T04:48:12;8.77;;;6.30;;
43986;SDS011;29650;47.378;8.300;2023-12-29T04:50:39;9.85;;;6.10;;
43986;SDS011;29650;47.378;8.300;2023-12-29T04:53:06;8.90;;;5.68;;
43986;SDS011;29650;47.378;8.300;2023-12-29T04:55:33;10.60;;;6.03;;
43986;SDS011;29650;47.378;8.300;2023-12-29T04:58:01;11.18;;;6.32;;
43986;SDS011;29650;47.378;8.300;2023-12-29T05:00:28;9.63;;;6.22;;
43986;SDS011;29650;47.378;8.300;2023-12-29T05:02:55;9.75;;;6.13;;
43986;SDS011;29650;47.378;8.300;2023-12-29T05:05:22;10.98;;;6.28;;
43986;SDS011;29650;47.378;8.300;2023-12-29T05:07:49;10.57;;;6.20;;
43986;SDS011;29650;47.378;8.300;2023-12-29T05:10:16;10.57;;;5.70;;
43986;SDS011;29650;47.378;8.300;2023-12-29T05:12:43;9.57;;;5.35;;
43986;SDS011;29650;47.378;8.300;2023-12-29T05:15:11;15.25;;;6.05;;
43986;SDS011;29650;47.378;8.300;2023-12-29T05:17:38;8.00;;;5.55;;
43986;SDS011;29650;47.378;8.300;2023-12-29T05:20:06;10.65;;;6.30;;
43986;SDS011;29650;47.378;8.300;2023-12-29T05:22:33;8.93;;;6.40;;
43986;SDS011;29650;47.378;8.300;2023-12-29T05:25:00;11.10;;;6.95;;
43986;SDS011;29650;47.378;8.300;2023-12-29T05:27:28;11.07;;;6.82;;
43986;SDS011;29650;47.378;8.300;2023-12-29T05:29:55;9.52;;;5.72;;
43986;SDS011;29650;47.378;8.300;2023-12-29T05:32:23;8.55;;;6.07;;
43986;SDS011;29650;47.378;8.300;2023-12-29T05:34:50;9.40;;;6.40;;
43986;SDS011;29650;47.378;8.300;2023-12-29T05:37:17;12.48;;;7.03;;
43986;SDS011;29650;47.378;8.300;2023-12-29T05:39:44;14.48;;;7.22;;
43986;SDS011;29650;47.378;8.300;2023-12-29T05:42:11;10.95;;;7.05;;
43986;SDS011;29650;47.378;8.300;2023-12-29T05:44:38;9.65;;;6.28;;
43986;SDS011;29650;47.378;8.300;2023-12-29T05:47:05;11.32;;;6.50;;
43986;SDS011;29650;47.378;8.300;2023-12-29T05:49:33;14.43;;;7.30;;
43986;SDS011;29650;47.378;8.300;2023-12-29T05:52:04;11.30;;;6.93;;
43986;SDS011;29650;47.378;8.300;2023-12-29T05:54:31;16.20;;;8.40;;
43986;SDS011;29650;47.378;8.300;2023-12-29T05:56:58;9.77;;;6.93;;
43986;SDS011;29650;47.378;8.300;2023-12-29T05:59:27;10.65;;;6.72;;
43986;SDS011;29650;47.378;8.300;2023-12-29T06:01:54;8.95;;;6.32;;
43986;SDS011;29650;47.378;8.300;2023-12-29T06:04:21;11.95;;;7.40;;
43986;SDS011;29650;47.378;8.300;2023-12-29T06:06:49;9.50;;;6.65;;
43986;SDS011;29650;47.378;8.300;2023-12-29T06:09:16;10.45;;;6.43;;
43986;SDS011;29650;47.378;8.300;2023-12-29T06:11:44;11.25;;;6.97;;
43986;SDS011;29650;47.378;8.300;2023-12-29T06:14:11;12.95;;;7.97;;
43986;SDS011;29650;47.378;8.300;2023-12-29T06:16:38;23.42;;;8.48;;
43986;SDS011;29650;47.378;8.300;2023-12-29T06:19:05;9.45;;;6.72;;
43986;SDS011;29650;47.378;8.300;2023-12-29T06:21:32;10.85;;;6.15;;
43986;SDS011;29650;47.378;8.300;2023-12-29T06:24:00;10.65;;;7.05;;
43986;SDS011;29650;47.378;8.300;2023-12-29T06:26:27;12.30;;;7.13;;
43986;SDS011;29650;47.378;8.300;2023-12-29T06:28:54;10.45;;;6.35;;
43986;SDS011;29650;47.378;8.300;2023-12-29T06:31:21;12.65;;;7.57;;
43986;SDS011;29650;47.378;8.300;2023-12-29T06:33:49;26.65;;;12.38;;
43986;SDS011;29650;47.378;8.300;2023-12-29T06:36:16;21.52;;;9.70;;
43986;SDS011;29650;47.378;8.300;2023-12-29T06:38:43;17.90;;;8.85;;
43986;SDS011;29650;47.378;8.300;2023-12-29T06:41:15;12.52;;;7.72;;
43986;SDS011;29650;47.378;8.300;2023-12-29T06:43:42;19.13;;;8.57;;
43986;SDS011;29650;47.378;8.300;2023-12-29T06:46:09;11.95;;;7.72;;
43986;SDS011;29650;47.378;8.300;2023-12-29T06:48:37;11.20;;;7.33;;
43986;SDS011;29650;47.378;8.300;2023-12-29T06:51:03;9.32;;;7.45;;
43986;SDS011;29650;47.378;8.300;2023-12-29T06:53:30;16.00;;;8.27;;
43986;SDS011;29650;47.378;8.300;2023-12-29T06:55:57;14.55;;;7.03;;
43986;SDS011;29650;47.378;8.300;2023-12-29T06:58:26;11.30;;;7.90;;
43986;SDS011;29650;47.378;8.300;2023-12-29T07:00:53;10.57;;;7.23;;
43986;SDS011;29650;47.378;8.300;2023-12-29T07:03:20;11.13;;;7.30;;
43986;SDS011;29650;47.378;8.300;2023-12-29T07:05:47;23.33;;;8.07;;
43986;SDS011;29650;47.378;8.300;2023-12-29T07:08:14;12.57;;;7.60;;
43986;SDS011;29650;47.378;8.300;2023-12-29T07:10:41;10.70;;;7.03;;
43986;SDS011;29650;47.378;8.300;2023-12-29T07:13:08;11.50;;;8.60;;
43986;SDS011;29650;47.378;8.300;2023-12-29T07:15:37;11.95;;;6.97;;
43986;SDS011;29650;47.378;8.300;2023-12-29T07:18:07;11.77;;;7.20;;
43986;SDS011;29650;47.378;8.300;2023-12-29T07:20:34;10.30;;;6.40;;
43986;SDS011;29650;47.378;8.300;2023-12-29T07:23:01;8.52;;;5.93;;
43986;SDS011;29650;47.378;8.300;2023-12-29T07:25:28;6.57;;;4.78;;
43986;SDS011;29650;47.378;8.300;2023-12-29T07:27:55;11.45;;;7.53;;
43986;SDS011;29650;47.378;8.300;2023-12-29T07:30:22;10.18;;;6.57;;
43986;SDS011;29650;47.378;8.300;2023-12-29T07:32:50;10.05;;;5.63;;
43986;SDS011;29650;47.378;8.300;2023-12-29T07:35:17;9.52;;;6.20;;
43986;SDS011;29650;47.378;8.300;2023-12-29T07:37:45;7.72;;;4.88;;
43986;SDS011;29650;47.378;8.300;2023-12-29T07:40:12;9.20;;;5.03;;
43986;SDS011;29650;47.378;8.300;2023-12-29T07:42:40;7.70;;;5.82;;
43986;SDS011;29650;47.378;8.300;2023-12-29T07:45:08;7.97;;;5.57;;
43986;SDS011;29650;47.378;8.300;2023-12-29T07:47:35;7.25;;;5.13;;
43986;SDS011;29650;47.378;8.300;2023-12-29T07:50:04;6.63;;;4.25;;
43986;SDS011;29650;47.378;8.300;2023-12-29T07:52:31;6.10;;;4.20;;
43986;SDS011;29650;47.378;8.300;2023-12-29T07:54:58;4.97;;;3.40;;
43986;SDS011;29650;47.378;8.300;2023-12-29T07:57:25;5.40;;;3.10;;
43986;SDS011;29650;47.378;8.300;2023-12-29T07:59:52;6.65;;;3.25;;
43986;SDS011;29650;47.378;8.300;2023-12-29T08:02:19;4.28;;;3.25;;
43986;SDS011;29650;47.378;8.300;2023-12-29T08:04:46;4.60;;;3.25;;
43986;SDS011;29650;47.378;8.300;2023-12-29T08:07:15;5.55;;;3.53;;
43986;SDS011;29650;47.378;8.300;2023-12-29T08:09:42;6.83;;;3.30;;
43986;SDS011;29650;47.378;8.300;2023-12-29T08:12:08;5.28;;;2.92;;
43986;SDS011;29650;47.378;8.300;2023-12-29T08:14:34;5.45;;;3.03;;
43986;SDS011;29650;47.378;8.300;2023-12-29T08:17:02;5.05;;;3.20;;
43986;SDS011;29650;47.378;8.300;2023-12-29T08:19:29;4.60;;;3.17;;
43986;SDS011;29650;47.378;8.300;2023-12-29T08:21:56;5.03;;;3.85;;
43986;SDS011;29650;47.378;8.300;2023-12-29T08:24:24;6.53;;;3.17;;
43986;SDS011;29650;47.378;8.300;2023-12-29T08:26:51;3.90;;;2.95;;
43986;SDS011;29650;47.378;8.300;2023-12-29T08:29:18;4.53;;;2.78;;
43986;SDS011;29650;47.378;8.300;2023-12-29T08:31:46;5.15;;;3.58;;
43986;SDS011;29650;47.378;8.300;2023-12-29T08:34:13;6.13;;;3.60;;
43986;SDS011;29650;47.378;8.300;2023-12-29T08:36:41;6.45;;;3.40;;
43986;SDS011;29650;47.378;8.300;2023-12-29T08:39:08;4.82;;;3.05;;
43986;SDS011;29650;47.378;8.300;2023-12-29T08:41:38;6.70;;;3.70;;
43986;SDS011;29650;47.378;8.300;2023-12-29T08:44:05;5.32;;;3.40;;
43986;SDS011;29650;47.378;8.300;2023-12-29T08:46:32;5.45;;;3.03;;
43986;SDS011;29650;47.378;8.300;2023-12-29T08:48:59;5.45;;;3.38;;
43986;SDS011;29650;47.378;8.300;2023-12-29T08:51:27;4.25;;;3.35;;
43986;SDS011;29650;47.378;8.300;2023-12-29T08:53:53;5.00;;;3.33;;
43986;SDS011;29650;47.378;8.300;2023-12-29T08:56:20;4.32;;;3.33;;
43986;SDS011;29650;47.378;8.300;2023-12-29T08:58:49;6.38;;;3.53;;
43986;SDS011;29650;47.378;8.300;2023-12-29T09:01:16;4.38;;;3.13;;
43986;SDS011;29650;47.378;8.300;2023-12-29T09:03:43;5.13;;;3.45;;
43986;SDS011;29650;47.378;8.300;2023-12-29T09:06:10;5.15;;;3.50;;
43986;SDS011;29650;47.378;8.300;2023-12-29T09:08:39;4.85;;;3.90;;
43986;SDS011;29650;47.378;8.300;2023-12-29T09:11:06;4.78;;;3.60;;
43986;SDS011;29650;47.378;8.300;2023-12-29T09:13:33;6.07;;;3.17;;
43986;SDS011;29650;47.378;8.300;2023-12-29T09:16:01;4.13;;;3.25;;
43986;SDS011;29650;47.378;8.300;2023-12-29T09:18:28;3.83;;;2.97;;
43986;SDS011;29650;47.378;8.300;2023-12-29T09:20:55;5.35;;;3.42;;
43986;SDS011;29650;47.378;8.300;2023-12-29T09:23:22;5.40;;;3.63;;
43986;SDS011;29650;47.378;8.300;2023-12-29T09:25:49;5.43;;;3.50;;
43986;SDS011;29650;47.378;8.300;2023-12-29T09:28:16;4.22;;;3.40;;
43986;SDS011;29650;47.378;8.300;2023-12-29T09:30:43;4.18;;;3.08;;
43986;SDS011;29650;47.378;8.300;2023-12-29T09:33:11;5.10;;;3.70;;
43986;SDS011;29650;47.378;8.300;2023-12-29T09:35:38;5.40;;;3.70;;
43986;SDS011;29650;47.378;8.300;2023-12-29T09:38:05;4.50;;;3.35;;
43986;SDS011;29650;47.378;8.300;2023-12-29T09:40:35;5.43;;;3.47;;
43986;SDS011;29650;47.378;8.300;2023-12-29T09:43:02;5.68;;;3.58;;
43986;SDS011;29650;47.378;8.300;2023-12-29T09:45:30;3.95;;;2.88;;
43986;SDS011;29650;47.378;8.300;2023-12-29T09:48:03;4.80;;;3.22;;
43986;SDS011;29650;47.378;8.300;2023-12-29T09:50:34;6.43;;;3.67;;
43986;SDS011;29650;47.378;8.300;2023-12-29T09:53:02;4.90;;;3.45;;
43986;SDS011;29650;47.378;8.300;2023-12-29T09:55:30;8.27;;;3.70;;
43986;SDS011;29650;47.378;8.300;2023-12-29T09:57:59;5.70;;;3.60;;
43986;SDS011;29650;47.378;8.300;2023-12-29T10:00:26;6.80;;;3.70;;
43986;SDS011;29650;47.378;8.300;2023-12-29T10:02:54;5.05;;;3.10;;
43986;SDS011;29650;47.378;8.300;2023-12-29T10:05:22;6.03;;;3.17;;
43986;SDS011;29650;47.378;8.300;2023-12-29T10:07:51;4.57;;;3.00;;
43986;SDS011;29650;47.378;8.300;2023-12-29T10:10:19;4.32;;;2.90;;
43986;SDS011;29650;47.378;8.300;2023-12-29T10:12:48;4.45;;;3.25;;
43986;SDS011;29650;47.378;8.300;2023-12-29T10:15:17;4.82;;;3.88;;
43986;SDS011;29650;47.378;8.300;2023-12-29T10:17:51;3.58;;;3.10;;
43986;SDS011;29650;47.378;8.300;2023-12-29T10:20:27;6.47;;;4.50;;
43986;SDS011;29650;47.378;8.300;2023-12-29T10:23:06;3.25;;;2.70;;
43986;SDS011;29650;47.378;8.300;2023-12-29T10:25:38;4.93;;;3.28;;
43986;SDS011;29650;47.378;8.300;2023-12-29T10:28:06;5.63;;;3.60;;
43986;SDS011;29650;47.378;8.300;2023-12-29T10:30:34;4.15;;;2.63;;
43986;SDS011;29650;47.378;8.300;2023-12-29T10:33:02;4.72;;;3.15;;
43986;SDS011;29650;47.378;8.300;2023-12-29T10:35:30;4.53;;;2.90;;
43986;SDS011;29650;47.378;8.300;2023-12-29T10:38:09;6.40;;;3.42;;
43986;SDS011;29650;47.378;8.300;2023-12-29T10:40:36;6.20;;;2.90;;
43986;SDS011;29650;47.378;8.300;2023-12-29T10:43:03;6.45;;;3.13;;
43986;SDS011;29650;47.378;8.300;2023-12-29T10:45:32;5.57;;;3.72;;
43986;SDS011;29650;47.378;8.300;2023-12-29T10:48:00;8.77;;;3.38;;
43986;SDS011;29650;47.378;8.300;2023-12-29T10:50:27;5.65;;;3.40;;
43986;SDS011;29650;47.378;8.300;2023-12-29T10:53:00;5.68;;;3.67;;
43986;SDS011;29650;47.378;8.300;2023-12-29T10:55:38;5.75;;;2.67;;
43986;SDS011;29650;47.378;8.300;2023-12-29T10:58:05;3.60;;;2.67;;
43986;SDS011;29650;47.378;8.300;2023-12-29T11:00:33;4.68;;;2.90;;
43986;SDS011;29650;47.378;8.300;2023-12-29T11:03:00;4.75;;;3.40;;
43986;SDS011;29650;47.378;8.300;2023-12-29T11:05:27;4.82;;;2.80;;
43986;SDS011;29650;47.378;8.300;2023-12-29T11:07:54;4.65;;;2.83;;
43986;SDS011;29650;47.378;8.300;2023-12-29T11:10:25;4.53;;;3.22;;
43986;SDS011;29650;47.378;8.300;2023-12-29T11:12:53;4.72;;;2.50;;
43986;SDS011;29650;47.378;8.300;2023-12-29T11:15:21;4.90;;;3.17;;
43986;SDS011;29650;47.378;8.300;2023-12-29T11:20:17;5.43;;;2.78;;
43986;SDS011;29650;47.378;8.300;2023-12-29T11:22:45;5.35;;;2.55;;
43986;SDS011;29650;47.378;8.300;2023-12-29T11:25:13;2.78;;;2.45;;
43986;SDS011;29650;47.378;8.300;2023-12-29T11:27:42;4.40;;;2.53;;
43986;SDS011;29650;47.378;8.300;2023-12-29T11:30:10;3.58;;;2.63;;
43986;SDS011;29650;47.378;8.300;2023-12-29T11:32:41;4.85;;;2.42;;
43986;SDS011;29650;47.378;8.300;2023-12-29T11:35:16;3.72;;;2.30;;
43986;SDS011;29650;47.378;8.300;2023-12-29T11:38:03;5.03;;;2.50;;
43986;SDS011;29650;47.378;8.300;2023-12-29T11:40:41;3.97;;;2.47;;
43986;SDS011;29650;47.378;8.300;2023-12-29T11:43:14;4.05;;;2.72;;
43986;SDS011;29650;47.378;8.300;2023-12-29T11:45:43;4.18;;;2.92;;
43986;SDS011;29650;47.378;8.300;2023-12-29T11:48:10;4.20;;;2.70;;
43986;SDS011;29650;47.378;8.300;2023-12-29T11:50:38;3.75;;;2.30;;
43986;SDS011;29650;47.378;8.300;2023-12-29T11:53:06;3.90;;;2.63;;
43986;SDS011;29650;47.378;8.300;2023-12-29T11:55:34;4.07;;;2.63;;
43986;SDS011;29650;47.378;8.300;2023-12-29T11:58:02;4.07;;;2.60;;
43986;SDS011;29650;47.378;8.300;2023-12-29T12:00:44;3.03;;;2.40;;
43986;SDS011;29650;47.378;8.300;2023-12-29T12:03:13;3.70;;;2.42;;
43986;SDS011;29650;47.378;8.300;2023-12-29T12:05:44;4.38;;;2.50;;
43986;SDS011;29650;47.378;8.300;2023-12-29T12:08:15;3.25;;;2.38;;
43986;SDS011;29650;47.378;8.300;2023-12-29T12:10:56;4.30;;;2.17;;
43986;SDS011;29650;47.378;8.300;2023-12-29T12:13:42;2.75;;;2.17;;
43986;SDS011;29650;47.378;8.300;2023-12-29T12:16:11;3.25;;;2.33;;
43986;SDS011;29650;47.378;8.300;2023-12-29T12:19:14;3.88;;;2.50;;
43986;SDS011;29650;47.378;8.300;2023-12-29T12:21:42;4.22;;;2.47;;
43986;SDS011;29650;47.378;8.300;2023-12-29T12:24:13;3.38;;;1.80;;
43986;SDS011;29650;47.378;8.300;2023-12-29T12:26:40;2.53;;;1.92;;
43986;SDS011;29650;47.378;8.300;2023-12-29T12:29:07;3.22;;;2.30;;
43986;SDS011;29650;47.378;8.300;2023-12-29T12:31:36;4.68;;;2.28;;
43986;SDS011;29650;47.378;8.300;2023-12-29T12:34:03;2.85;;;1.88;;
43986;SDS011;29650;47.378;8.300;2023-12-29T12:36:31;4.00;;;2.20;;
43986;SDS011;29650;47.378;8.300;2023-12-29T12:38:58;3.28;;;1.70;;
43986;SDS011;29650;47.378;8.300;2023-12-29T12:41:25;3.28;;;2.10;;
43986;SDS011;29650;47.378;8.300;2023-12-29T12:43:57;3.33;;;2.30;;
43986;SDS011;29650;47.378;8.300;2023-12-29T12:46:29;2.75;;;2.20;;
43986;SDS011;29650;47.378;8.300;2023-12-29T12:49:02;3.30;;;2.40;;
43986;SDS011;29650;47.378;8.300;2023-12-29T12:51:30;2.42;;;2.00;;
43986;SDS011;29650;47.378;8.300;2023-12-29T12:53:58;3.87;;;2.20;;
43986;SDS011;29650;47.378;8.300;2023-12-29T12:56:25;4.38;;;2.22;;
43986;SDS011;29650;47.378;8.300;2023-12-29T12:58:54;3.72;;;2.17;;
43986;SDS011;29650;47.378;8.300;2023-12-29T13:01:22;4.95;;;2.30;;
43986;SDS011;29650;47.378;8.300;2023-12-29T13:03:50;2.90;;;1.95;;
43986;SDS011;29650;47.378;8.300;2023-12-29T13:06:19;2.80;;;2.28;;
43986;SDS011;29650;47.378;8.300;2023-12-29T13:11:18;3.85;;;2.17;;
43986;SDS011;29650;47.378;8.300;2023-12-29T13:13:47;2.63;;;1.90;;
43986;SDS011;29650;47.378;8.300;2023-12-29T13:16:14;4.22;;;1.95;;
43986;SDS011;29650;47.378;8.300;2023-12-29T13:18:41;3.35;;;2.38;;
43986;SDS011;29650;47.378;8.300;2023-12-29T13:21:08;3.10;;;1.90;;
43986;SDS011;29650;47.378;8.300;2023-12-29T13:23:36;2.67;;;2.00;;
43986;SDS011;29650;47.378;8.300;2023-12-29T13:26:04;2.45;;;1.80;;
43986;SDS011;29650;47.378;8.300;2023-12-29T13:28:33;2.90;;;1.92;;
43986;SDS011;29650;47.378;8.300;2023-12-29T13:31:01;2.78;;;1.90;;
43986;SDS011;29650;47.378;8.300;2023-12-29T13:33:32;2.47;;;1.73;;
43986;SDS011;29650;47.378;8.300;2023-12-29T13:36:05;2.33;;;2.08;;
43986;SDS011;29650;47.378;8.300;2023-12-29T13:38:37;1.77;;;1.60;;
43986;SDS011;29650;47.378;8.300;2023-12-29T13:41:11;2.72;;;1.70;;
43986;SDS011;29650;47.378;8.300;2023-12-29T13:43:40;3.77;;;1.90;;
43986;SDS011;29650;47.378;8.300;2023-12-29T13:46:11;3.28;;;1.70;;
43986;SDS011;29650;47.378;8.300;2023-12-29T13:48:39;2.47;;;1.80;;
43986;SDS011;29650;47.378;8.300;2023-12-29T13:51:07;2.58;;;1.75;;
43986;SDS011;29650;47.378;8.300;2023-12-29T13:53:36;2.10;;;1.63;;
43986;SDS011;29650;47.378;8.300;2023-12-29T13:56:06;2.42;;;1.60;;
43986;SDS011;29650;47.378;8.300;2023-12-29T13:58:34;3.70;;;1.85;;
43986;SDS011;29650;47.378;8.300;2023-12-29T14:01:01;3.25;;;1.88;;
43986;SDS011;29650;47.378;8.300;2023-12-29T14:03:35;1.67;;;1.20;;
43986;SDS011;29650;47.378;8.300;2023-12-29T14:06:08;3.08;;;1.42;;
43986;SDS011;29650;47.378;8.300;2023-12-29T14:08:44;4.55;;;1.85;;
43986;SDS011;29650;47.378;8.300;2023-12-29T14:11:12;1.33;;;1.20;;
43986;SDS011;29650;47.378;8.300;2023-12-29T14:13:41;2.33;;;1.30;;
43986;SDS011;29650;47.378;8.300;2023-12-29T14:16:08;2.08;;;1.48;;
43986;SDS011;29650;47.378;8.300;2023-12-29T14:18:40;2.03;;;1.20;;
43986;SDS011;29650;47.378;8.300;2023-12-29T14:21:22;1.20;;;1.10;;
43986;SDS011;29650;47.378;8.300;2023-12-29T14:24:07;1.60;;;1.02;;
43986;SDS011;29650;47.378;8.300;2023-12-29T14:26:35;2.20;;;1.40;;
43986;SDS011;29650;47.378;8.300;2023-12-29T14:29:02;3.20;;;1.27;;
43986;SDS011;29650;47.378;8.300;2023-12-29T14:31:31;1.50;;;1.23;;
43986;SDS011;29650;47.378;8.300;2023-12-29T14:34:01;1.73;;;1.02;;
43986;SDS011;29650;47.378;8.300;2023-12-29T14:36:28;2.00;;;1.40;;
43986;SDS011;29650;47.378;8.300;2023-12-29T14:38:55;2.55;;;1.27;;
43986;SDS011;29650;47.378;8.300;2023-12-29T14:41:24;2.65;;;1.48;;
43986;SDS011;29650;47.378;8.300;2023-12-29T14:43:51;2.60;;;1.23;;
43986;SDS011;29650;47.378;8.300;2023-12-29T14:46:17;1.90;;;0.98;;
43986;SDS011;29650;47.378;8.300;2023-12-29T14:48:45;2.55;;;1.13;;
43986;SDS011;29650;47.378;8.300;2023-12-29T14:51:12;1.88;;;1.15;;
43986;SDS011;29650;47.378;8.300;2023-12-29T14:53:39;3.25;;;1.48;;
43986;SDS011;29650;47.378;8.300;2023-12-29T14:56:06;1.70;;;1.25;;